»·PEaware :: DAL2189 KPDX-KSLC

DAL2189 :: KPDX-KSLC

FLIGHT INFORMATION

Flight Status: Arrived
Operator:
Delta Air Lines
More flights by this operator :: More flights under this callsign
Pilot: Joe P. (13940)
Aircraft: MCDONNELL-DOUGLAS MD-82
(MD82)
More flights by this aircraft type
Origin: KPDX Portland Intl
United States
Destination: KSLC Salt Lake City Intl
United States
More flights between these airports :: More routes between these airports
Route: +WHAMY4 IMB J15 BOI BYI SKEES5
File this flight plan on PilotEdge
Remarks: SEL / ABCD KTWF -PBN / A1B1C1D1L1O1S1 NAV / RNVD1E2A1 DOF / 180804 REG / N389DA EET / KZLC0030 RVR / 200 PER / C
Altitude:
(Current/Filed)
350ft
Speed:
(Current/Filed)
457kts
Departed: 04-Aug-18 08:19 AM
Arrived: 04-Aug-18 09:38 AM
Distance/Time
Traveled:
546nm/1:19
Distance/Time
To Go:
Arrived

Flight Plot

Page will automatically refresh every two minutes.

Flight plan parsing failed; only flown route is shown


Map Options




Map Legend


Flown Route
Filed Route
Departure Airport
Arrival Airport
Navaid (VOR, NDB)
Fix

Horizontal Profiles

Position Reports

Time Latitude Longitude Heading Altitude Ground
Speed
04-Aug-18 07:35 45.591273 -122.594135 202 26ft 0kts
04-Aug-18 07:36 45.591273 -122.594135 202 26ft 0kts
04-Aug-18 07:37 45.591273 -122.594135 202 26ft 0kts
04-Aug-18 07:38 45.591273 -122.594135 202 26ft 0kts
04-Aug-18 07:39 45.591273 -122.594135 202 26ft 0kts
04-Aug-18 07:40 45.591273 -122.594135 202 26ft 0kts
04-Aug-18 07:41 45.591273 -122.594135 202 26ft 0kts
04-Aug-18 07:42 45.591273 -122.594135 202 26ft 0kts
04-Aug-18 07:43 45.591273 -122.594135 202 26ft 0kts
04-Aug-18 07:44 45.591273 -122.594135 202 26ft 0kts
04-Aug-18 07:45 45.591273 -122.594135 202 26ft 0kts
04-Aug-18 07:46 45.591273 -122.594135 202 26ft 0kts
04-Aug-18 07:47 45.591273 -122.594135 202 26ft 0kts
04-Aug-18 07:48 45.591273 -122.594135 202 26ft 0kts
04-Aug-18 07:49 45.591273 -122.594135 202 26ft 0kts
04-Aug-18 07:50 45.591273 -122.594135 202 26ft 0kts
04-Aug-18 07:51 45.591273 -122.594135 202 26ft 0kts
04-Aug-18 07:52 45.591273 -122.594135 202 26ft 0kts
04-Aug-18 07:53 45.591273 -122.594135 202 26ft 0kts
04-Aug-18 07:54 45.591273 -122.594135 202 26ft 0kts
04-Aug-18 07:55 45.591273 -122.594135 202 26ft 0kts
04-Aug-18 07:56 45.591273 -122.594135 202 26ft 0kts
04-Aug-18 07:57 45.591273 -122.594135 202 26ft 0kts
04-Aug-18 07:58 45.591273 -122.594135 202 26ft 0kts
04-Aug-18 07:59 45.591273 -122.594135 202 26ft 0kts
04-Aug-18 08:00 45.591273 -122.594135 202 26ft 0kts
04-Aug-18 08:01 45.591273 -122.594135 202 26ft 0kts
04-Aug-18 08:02 45.591273 -122.594135 202 26ft 0kts
04-Aug-18 08:03 45.591273 -122.594135 202 26ft 0kts
04-Aug-18 08:04 45.591273 -122.594135 202 26ft 0kts
04-Aug-18 08:05 45.591273 -122.594135 202 26ft 0kts
04-Aug-18 08:06 45.591273 -122.594135 202 26ft 0kts
04-Aug-18 08:07 45.591273 -122.594135 202 26ft 0kts
04-Aug-18 08:08 45.591790 -122.593946 163 26ft 2kts
04-Aug-18 08:09 45.591963 -122.594176 118 26ft 0kts
04-Aug-18 08:10 45.591963 -122.594176 118 26ft 0kts
04-Aug-18 08:11 45.591963 -122.594176 118 26ft 0kts
04-Aug-18 08:12 45.591958 -122.594163 118 26ft 1kts
04-Aug-18 08:13 45.591220 -122.589550 118 26ft 6kts
04-Aug-18 08:14 45.589347 -122.584714 118 26ft 9kts
04-Aug-18 08:15 45.587704 -122.580557 118 26ft 23kts
04-Aug-18 08:16 45.585054 -122.573674 118 25ft 12kts
04-Aug-18 08:17 45.583470 -122.569382 82 26ft 2kts
04-Aug-18 08:18 45.583481 -122.569329 71 26ft 0kts
04-Aug-18 08:19 45.584446 -122.569113 296 26ft 4kts
04-Aug-18 08:20 45.594794 -122.595189 300 444ft 178kts
04-Aug-18 08:21 45.614958 -122.663563 292 3514ft 228kts
04-Aug-18 08:22 45.650212 -122.753341 300 6566ft 275kts
04-Aug-18 08:23 45.663905 -122.859882 256 10157ft 293kts
04-Aug-18 08:24 45.604122 -122.926509 175 13351ft 318kts
04-Aug-18 08:25 45.528089 -122.845598 117 15054ft 380kts
04-Aug-18 08:26 45.483281 -122.705870 114 17784ft 397kts
04-Aug-18 08:27 45.437494 -122.559713 114 20300ft 412kts
04-Aug-18 08:28 45.389837 -122.407589 113 22440ft 428kts
04-Aug-18 08:29 45.340999 -122.250564 114 24392ft 441kts
04-Aug-18 08:30 45.289606 -122.089142 114 26109ft 453kts
04-Aug-18 08:31 45.238654 -121.922721 111 27521ft 468kts
04-Aug-18 08:32 45.194162 -121.747092 110 28848ft 480kts
04-Aug-18 08:33 45.147784 -121.567755 111 30300ft 484kts
04-Aug-18 08:34 45.101647 -121.388736 111 31764ft 485kts
04-Aug-18 08:35 45.055027 -121.209960 112 33192ft 485kts
04-Aug-18 08:36 45.007742 -121.030689 113 34478ft 486kts
04-Aug-18 08:37 44.960002 -120.851205 113 35102ft 492kts
04-Aug-18 08:38 44.911804 -120.671392 114 35114ft 490kts
04-Aug-18 08:39 44.863090 -120.491095 114 35113ft 492kts
04-Aug-18 08:40 44.814046 -120.310871 114 35116ft 493kts
04-Aug-18 08:41 44.764398 -120.129675 115 35118ft 496kts
04-Aug-18 08:42 44.714721 -119.948687 116 35122ft 499kts
04-Aug-18 08:43 44.663772 -119.766489 116 35126ft 502kts
04-Aug-18 08:44 44.611558 -119.584454 117 35133ft 501kts
04-Aug-18 08:45 44.558037 -119.404018 117 35137ft 502kts
04-Aug-18 08:46 44.504452 -119.223289 117 35136ft 503kts
04-Aug-18 08:47 44.450791 -119.041306 118 35139ft 505kts
04-Aug-18 08:48 44.405638 -118.889943 118 35140ft 508kts
04-Aug-18 08:49 44.350654 -118.707223 118 35140ft 510kts
04-Aug-18 08:50 44.285823 -118.493533 119 35140ft 515kts
04-Aug-18 08:51 44.229472 -118.309255 119 35139ft 518kts
04-Aug-18 08:52 44.181916 -118.154767 119 35137ft 520kts
04-Aug-18 08:53 44.124682 -117.970016 120 35131ft 520kts
04-Aug-18 08:54 44.057465 -117.754780 120 35121ft 520kts
04-Aug-18 08:55 44.009113 -117.601011 120 35110ft 519kts
04-Aug-18 08:56 43.950873 -117.416961 120 35096ft 523kts
04-Aug-18 08:57 43.891872 -117.231867 120 35092ft 523kts
04-Aug-18 08:58 43.832629 -117.047304 121 35091ft 526kts
04-Aug-18 08:59 43.772928 -116.862570 121 35092ft 527kts
04-Aug-18 09:00 43.712558 -116.677083 121 35091ft 528kts
04-Aug-18 09:01 43.652326 -116.492272 121 35084ft 529kts
04-Aug-18 09:02 43.591297 -116.307825 121 35087ft 529kts
04-Aug-18 09:03 43.527228 -116.125373 127 35090ft 523kts
04-Aug-18 09:04 43.455532 -115.951154 127 35095ft 524kts
04-Aug-18 09:05 43.383900 -115.776464 126 35100ft 526kts
04-Aug-18 09:06 43.312418 -115.600410 126 35103ft 526kts
04-Aug-18 09:07 43.240547 -115.425306 126 35107ft 528kts
04-Aug-18 09:08 43.167976 -115.249785 126 35113ft 529kts
04-Aug-18 09:09 43.095244 -115.074972 127 35124ft 529kts
04-Aug-18 09:10 43.022127 -114.900285 127 35135ft 530kts
04-Aug-18 09:11 42.948330 -114.725033 126 35142ft 532kts
04-Aug-18 09:12 42.874424 -114.550590 127 35141ft 532kts
04-Aug-18 09:13 42.800114 -114.376189 127 35140ft 532kts
04-Aug-18 09:14 42.725363 -114.201272 126 35140ft 534kts
04-Aug-18 09:15 42.650339 -114.027253 127 35135ft 535kts
04-Aug-18 09:16 42.571479 -113.856582 135 35130ft 528kts
04-Aug-18 09:17 42.470104 -113.716899 144 35130ft 517kts
04-Aug-18 09:18 42.367369 -113.580801 144 35130ft 517kts
04-Aug-18 09:19 42.264388 -113.444248 144 35132ft 517kts
04-Aug-18 09:20 42.161976 -113.309276 144 32822ft 515kts
04-Aug-18 09:21 42.060002 -113.175498 143 30266ft 504kts
04-Aug-18 09:22 41.961325 -113.045812 143 28135ft 486kts
04-Aug-18 09:23 41.866497 -112.921567 142 26061ft 468kts
04-Aug-18 09:24 41.774730 -112.802562 142 24031ft 451kts
04-Aug-18 09:25 41.685901 -112.687809 142 22040ft 435kts
04-Aug-18 09:26 41.600529 -112.577839 142 20099ft 418kts
04-Aug-18 09:27 41.523066 -112.481443 151 19895ft 336kts
04-Aug-18 09:28 41.447332 -112.396925 137 17785ft 372kts
04-Aug-18 09:29 41.380242 -112.294760 137 15386ft 361kts
04-Aug-18 09:30 41.313984 -112.197050 136 13197ft 343kts
04-Aug-18 09:31 41.253517 -112.108704 136 12077ft 306kts
04-Aug-18 09:32 41.188597 -112.043835 152 10726ft 294kts
04-Aug-18 09:33 41.110960 -112.019150 192 8728ft 296kts
04-Aug-18 09:34 41.036885 -112.027298 171 8054ft 244kts
04-Aug-18 09:35 40.970586 -112.018144 174 7382ft 228kts
04-Aug-18 09:36 40.915324 -112.011693 174 6312ft 171kts
04-Aug-18 09:37 40.871143 -112.006571 174 5472ft 155kts
04-Aug-18 09:38 40.826450 -112.001397 174 4613ft 159kts
04-Aug-18 09:39 40.790560 -111.997183 178 4235ft 38kts
04-Aug-18 09:40 40.784847 -111.995613 135 4235ft 4kts
04-Aug-18 09:41 40.784623 -111.995298 126 4235ft 0kts
04-Aug-18 09:42 40.784541 -111.995023 87 4235ft 0kts
04-Aug-18 09:43 40.784374 -111.992357 36 4235ft 9kts
04-Aug-18 09:44 40.786817 -111.991940 82 4235ft 5kts
04-Aug-18 09:45 40.787366 -111.988627 33 4235ft 11kts
04-Aug-18 09:46 40.788354 -111.985861 72 4235ft 3kts
04-Aug-18 09:47 40.788476 -111.985388 68 4235ft 0kts
04-Aug-18 09:48 40.788476 -111.985388 68 4235ft 0kts
04-Aug-18 09:49 40.788476 -111.985388 68 4235ft 0kts
04-Aug-18 09:50 40.788476 -111.985388 68 4235ft 0kts
04-Aug-18 09:51 40.788476 -111.985388 68 4235ft 0kts
04-Aug-18 09:52 40.788476 -111.985388 68 4235ft 0kts
04-Aug-18 09:53 40.788476 -111.985388 68 4235ft 0kts

Navigation Log

Ident Type
Flight plan parsing failed, navigation log unavailable